Time;durP1;ratioP1;P1;durP2;ratioP2;P2;SDS_P1;SDS_P2;PMS_P1;PMS_P2;Temp;Humidity;BMP_temperature;BMP_pressure;BME280_temperature;BME280_humidity;BME280_pressure;Samples;Min_cycle;Max_cycle;Signal;HPM_P1;HPM_P2
2021/10/17 00:02:21;;;;;;;6.05;4.87;;;;;;;16.11;72.51;101443.84;144992;600;6002;-75
2021/10/17 00:04:48;;;;;;;10.35;7.80;;;;;;;16.13;72.74;101443.84;144992;657;6002;-77
2021/10/17 00:07:14;;;;;;;5.80;4.65;;;;;;;16.14;72.81;101443.84;144992;583;6002;-77
2021/10/17 00:09:42;;;;;;;6.70;5.07;;;;;;;16.13;72.43;101446.47;144993;568;6002;-74
2021/10/17 00:12:11;;;;;;;7.25;5.05;;;;;;;16.13;72.79;101449.09;144993;585;6002;-75
2021/10/17 00:14:38;;;;;;;8.07;5.68;;;;;;;16.12;72.71;101450.81;144993;682;6002;-75
2021/10/17 00:17:06;;;;;;;6.45;4.40;;;;;;;16.16;72.50;101443.00;144993;709;6002;-76
2021/10/17 00:19:32;;;;;;;6.20;4.70;;;;;;;16.17;72.30;101450.03;144993;608;6002;-75
2021/10/17 00:21:59;;;;;;;7.55;5.28;;;;;;;16.19;72.21;101443.94;144993;575;6002;-75
2021/10/17 00:24:25;;;;;;;9.02;5.90;;;;;;;16.21;72.31;101443.97;144993;589;6002;-76
2021/10/17 00:26:52;;;;;;;8.65;5.75;;;;;;;16.21;72.29;101439.63;144993;695;6002;-75
2021/10/17 00:29:18;;;;;;;8.90;5.97;;;;;;;16.22;71.78;101440.50;144993;565;6002;-76
2021/10/17 00:31:45;;;;;;;9.10;6.93;;;;;;;16.20;72.57;101435.25;144993;586;6002;-74
2021/10/17 00:34:11;;;;;;;7.05;4.72;;;;;;;16.17;72.13;101437.81;144993;590;6002;-76
2021/10/17 00:36:38;;;;;;;9.85;6.22;;;;;;;16.18;72.21;101431.72;144993;582;6002;-75
2021/10/17 00:39:05;;;;;;;8.20;5.22;;;;;;;16.16;72.10;101436.03;144993;641;6002;-75
2021/10/17 00:41:32;;;;;;;7.90;5.87;;;;;;;16.16;71.91;101433.41;144993;611;6002;-75
2021/10/17 00:44:03;;;;;;;10.10;6.50;;;;;;;16.18;71.68;101431.72;144993;703;6002;-75
2021/10/17 00:46:29;;;;;;;9.68;6.25;;;;;;;16.17;71.90;101432.56;144993;587;6002;-77
2021/10/17 00:48:56;;;;;;;7.80;5.50;;;;;;;16.21;71.59;101428.25;144993;576;6002;-76
2021/10/17 00:51:23;;;;;;;8.57;5.37;;;;;;;16.16;72.31;101425.56;144993;577;6002;-76
2021/10/17 00:53:49;;;;;;;6.60;4.15;;;;;;;16.07;72.23;101425.41;144993;563;6002;-76
2021/10/17 00:56:16;;;;;;;11.07;7.93;;;;;;;16.01;72.35;101425.28;144993;571;6002;-76
2021/10/17 00:58:43;;;;;;;4.53;3.83;;;;;;;15.91;72.72;101422.50;144993;618;6002;-76
2021/10/17 01:01:09;;;;;;;6.68;4.55;;;;;;;15.81;72.23;101417.91;144993;704;6002;-76
2021/10/17 01:03:36;;;;;;;7.37;5.05;;;;;;;15.73;72.86;101424.72;144994;577;5002;-76
2021/10/17 01:06:04;;;;;;;4.37;3.33;;;;;;;15.74;72.83;101421.25;144994;573;5002;-76
2021/10/17 01:08:30;;;;;;;3.72;3.20;;;;;;;15.69;72.79;101420.28;144993;620;5002;-76
2021/10/17 01:10:58;;;;;;;9.30;6.05;;;;;;;15.65;73.23;101428.91;144994;651;5002;-76
2021/10/17 01:13:25;;;;;;;9.73;6.53;;;;;;;15.69;72.90;101428.12;144994;600;5002;-76
2021/10/17 01:15:53;;;;;;;6.40;3.72;;;;;;;15.68;73.21;101426.34;144994;582;5002;-76
2021/10/17 01:18:21;;;;;;;8.73;6.03;;;;;;;15.66;72.65;101426.34;144994;573;5002;-76
2021/10/17 01:20:48;;;;;;;7.00;3.90;;;;;;;15.64;73.17;101417.56;144994;572;5002;-76
2021/10/17 01:23:16;;;;;;;4.50;2.70;;;;;;;15.56;73.03;101412.19;144994;563;5002;-76
2021/10/17 01:25:43;;;;;;;4.87;3.87;;;;;;;15.58;72.90;101409.59;144994;681;5002;-76
2021/10/17 01:28:09;;;;;;;12.50;8.32;;;;;;;15.58;72.83;101414.81;144994;588;5002;-77
2021/10/17 01:30:36;;;;;;;9.52;5.10;;;;;;;15.57;73.10;101411.34;144994;591;5002;-76
2021/10/17 01:33:04;;;;;;;3.97;2.80;;;;;;;15.56;72.87;101406.06;144994;699;5002;-76
2021/10/17 01:35:31;;;;;;;8.82;5.55;;;;;;;15.56;73.05;101406.06;144994;577;5002;-76
2021/10/17 01:37:58;;;;;;;9.55;5.78;;;;;;;15.57;73.03;101402.59;144994;579;5002;-77
2021/10/17 01:40:24;;;;;;;2.78;2.50;;;;;;;15.56;72.85;101409.56;144994;592;5002;-76
2021/10/17 01:42:51;;;;;;;11.40;6.55;;;;;;;15.59;72.71;101401.78;144994;592;5002;-76
2021/10/17 01:45:17;;;;;;;13.48;7.90;;;;;;;15.66;73.17;101410.63;144994;594;5002;-76
2021/10/17 01:47:52;;;;;;;9.98;5.82;;;;;;;15.71;72.67;101408.09;144994;631;5002;-76
2021/10/17 01:50:19;;;;;;;12.25;7.00;;;;;;;15.73;72.31;101402.06;144994;570;5002;-76
2021/10/17 01:52:46;;;;;;;7.75;4.97;;;;;;;15.75;71.96;101404.72;144994;636;5002;-76
2021/10/17 01:55:13;;;;;;;13.10;7.22;;;;;;;15.74;72.94;101406.41;144994;582;5002;-76
2021/10/17 01:57:39;;;;;;;11.35;6.00;;;;;;;15.64;72.68;101411.44;144994;564;5002;-76
2021/10/17 02:00:08;;;;;;;19.08;11.52;;;;;;;15.64;72.55;101407.09;144994;564;5002;-76
2021/10/17 02:02:34;;;;;;;3.22;2.83;;;;;;;15.61;71.85;101414.91;144994;681;5002;-76
2021/10/17 02:05:00;;;;;;;3.50;2.78;;;;;;;15.53;71.78;101406.87;144994;579;5002;-77
2021/10/17 02:07:27;;;;;;;3.78;2.20;;;;;;;15.47;71.38;101414.59;144994;626;5002;-77
2021/10/17 02:09:53;;;;;;;4.68;2.80;;;;;;;15.45;71.93;101418.94;144994;585;5002;-76
2021/10/17 02:12:26;;;;;;;3.92;3.30;;;;;;;15.44;72.30;101422.38;144994;618;5002;-75
2021/10/17 02:14:53;;;;;;;7.90;4.50;;;;;;;15.49;72.73;101425.97;144994;572;5002;-77
2021/10/17 02:17:20;;;;;;;5.28;3.15;;;;;;;15.51;72.97;101423.37;144994;589;5002;-75
2021/10/17 02:19:46;;;;;;;12.05;7.50;;;;;;;15.56;72.54;101421.78;144993;610;5002;-75
2021/10/17 02:22:13;;;;;;;5.72;4.43;;;;;;;15.52;72.57;101428.66;144994;618;5002;-76
2021/10/17 02:24:39;;;;;;;7.07;4.18;;;;;;;15.52;72.59;101425.16;144994;620;5002;-76
2021/10/17 02:27:06;;;;;;;7.25;4.85;;;;;;;15.52;72.59;101428.66;144994;571;5002;-75
2021/10/17 02:29:34;;;;;;;10.02;5.70;;;;;;;15.53;73.02;101427.81;144994;632;5002;-76
2021/10/17 02:32:00;;;;;;;6.70;5.05;;;;;;;15.49;72.83;101425.09;144994;590;5002;-77
2021/10/17 02:34:27;;;;;;;11.98;6.90;;;;;;;15.50;73.04;101430.37;144994;677;5002;-77
2021/10/17 02:36:54;;;;;;;10.45;7.05;;;;;;;15.52;72.84;101433.00;144994;711;5002;-77
2021/10/17 02:39:20;;;;;;;13.13;6.90;;;;;;;15.52;72.38;101430.41;144994;596;5002;-76
2021/10/17 02:41:47;;;;;;;6.57;5.20;;;;;;;15.54;72.84;101437.44;144994;582;5002;-76
2021/10/17 02:44:13;;;;;;;7.10;5.18;;;;;;;15.57;72.70;101436.59;144994;582;5002;-76
2021/10/17 02:46:40;;;;;;;14.82;8.00;;;;;;;15.63;72.60;101441.97;144994;690;5002;-77
2021/10/17 02:49:06;;;;;;;11.75;7.65;;;;;;;15.60;72.33;101442.81;144994;575;5002;-77
2021/10/17 02:51:32;;;;;;;14.40;8.25;;;;;;;15.63;72.31;101456.78;144994;589;5002;-76
2021/10/17 02:53:59;;;;;;;7.05;4.75;;;;;;;15.60;72.82;101452.38;144994;582;5003;-77
2021/10/17 02:56:26;;;;;;;4.55;3.62;;;;;;;15.53;72.12;101458.34;144994;677;5002;-76
2021/10/17 02:58:52;;;;;;;5.62;3.75;;;;;;;15.49;72.50;101453.87;144994;613;5002;-75
2021/10/17 03:01:19;;;;;;;21.05;11.90;;;;;;;15.49;72.55;101459.12;144994;585;5002;-77
2021/10/17 03:03:45;;;;;;;4.53;3.12;;;;;;;15.37;72.02;101462.38;144994;605;5002;-77
2021/10/17 03:06:11;;;;;;;7.00;4.62;;;;;;;15.33;72.67;101465.75;144994;583;5002;-77
2021/10/17 03:08:38;;;;;;;14.43;8.73;;;;;;;15.34;73.01;101468.41;144994;566;5002;-75
2021/10/17 03:11:04;;;;;;;10.75;7.28;;;;;;;15.30;73.13;101463.94;144994;639;5002;-76
2021/10/17 03:13:31;;;;;;;5.93;3.65;;;;;;;15.23;73.05;101478.63;144993;709;5002;-76
2021/10/17 03:15:58;;;;;;;9.80;5.95;;;;;;;15.26;73.06;101479.56;144994;659;5002;-77
2021/10/17 03:18:24;;;;;;;4.62;3.45;;;;;;;15.20;73.21;101475.94;144994;564;5002;-77
2021/10/17 03:20:52;;;;;;;4.82;3.50;;;;;;;15.17;73.53;101478.47;144994;577;5002;-77
2021/10/17 03:23:18;;;;;;;5.60;4.12;;;;;;;15.18;73.44;101485.47;144994;575;5002;-75
2021/10/17 03:25:45;;;;;;;6.25;4.55;;;;;;;15.16;73.54;101481.06;144994;573;5002;-77
2021/10/17 03:28:11;;;;;;;13.60;9.48;;;;;;;15.20;72.91;101491.63;144994;569;5002;-76
2021/10/17 03:30:38;;;;;;;12.63;8.82;;;;;;;15.26;72.77;101495.25;144994;657;5002;-76
2021/10/17 03:33:04;;;;;;;6.35;4.65;;;;;;;15.25;73.45;101489.12;144994;589;5002;-77
2021/10/17 03:35:31;;;;;;;5.97;5.12;;;;;;;15.20;73.71;101489.00;144994;657;5002;-76
2021/10/17 03:37:57;;;;;;;6.62;4.60;;;;;;;15.10;73.79;101494.00;144994;588;5002;-76
2021/10/17 03:40:24;;;;;;;6.90;4.62;;;;;;;15.02;74.53;101491.22;144994;650;5002;-78
2021/10/17 03:42:50;;;;;;;14.23;9.43;;;;;;;14.99;73.83;101488.53;144994;565;5002;-77
2021/10/17 03:45:17;;;;;;;8.90;5.10;;;;;;;14.96;73.92;101489.31;144993;570;5002;-76
2021/10/17 03:47:43;;;;;;;13.20;9.07;;;;;;;15.02;73.64;101491.22;144994;580;5002;-78
2021/10/17 03:50:10;;;;;;;20.50;13.18;;;;;;;15.12;73.37;101500.16;144994;573;5002;-77
2021/10/17 03:52:36;;;;;;;21.85;13.35;;;;;;;15.18;73.13;101495.06;144994;602;5002;-76
2021/10/17 03:55:04;;;;;;;8.65;6.43;;;;;;;15.23;73.47;101496.06;144994;618;5002;-76
2021/10/17 03:57:32;;;;;;;20.25;12.82;;;;;;;15.23;73.14;101493.44;144993;596;5002;-76
2021/10/17 03:59:58;;;;;;;6.57;5.03;;;;;;;15.22;73.19;101495.19;144994;633;5002;-75
2021/10/17 04:02:24;;;;;;;23.25;12.57;;;;;;;15.26;73.19;101497.87;144994;600;5002;-76
2021/10/17 04:04:51;;;;;;;7.68;5.70;;;;;;;15.28;72.95;101498.78;144994;570;5002;-76
2021/10/17 04:07:17;;;;;;;15.60;10.18;;;;;;;15.32;73.09;101501.50;144994;661;5002;-76
2021/10/17 04:09:44;;;;;;;17.80;12.40;;;;;;;15.36;72.88;101502.44;144994;570;5002;-77
2021/10/17 04:12:10;;;;;;;20.55;12.40;;;;;;;15.36;72.98;101503.31;144994;591;5002;-76
2021/10/17 04:14:37;;;;;;;7.18;5.57;;;;;;;15.31;73.00;101498.84;144994;564;5002;-76
2021/10/17 04:17:03;;;;;;;9.70;6.90;;;;;;;15.24;72.77;101497.81;144994;727;5002;-75
2021/10/17 04:19:30;;;;;;;16.00;11.07;;;;;;;15.28;73.18;101501.37;144994;566;5002;-77
2021/10/17 04:21:56;;;;;;;7.50;5.55;;;;;;;15.21;73.17;101498.63;144994;605;5002;-77
2021/10/17 04:24:23;;;;;;;18.50;11.60;;;;;;;15.24;73.03;101498.69;144994;603;5002;-75
2021/10/17 04:26:49;;;;;;;9.52;5.50;;;;;;;15.20;73.32;101502.09;144994;576;5002;-75
2021/10/17 04:29:16;;;;;;;14.32;9.10;;;;;;;15.21;73.21;101498.63;144994;570;5002;-76
2021/10/17 04:31:42;;;;;;;10.27;7.53;;;;;;;15.24;72.80;101505.69;144994;658;5002;-76
2021/10/17 04:34:09;;;;;;;11.50;8.27;;;;;;;15.28;72.79;101501.37;144994;601;5002;-76
2021/10/17 04:36:36;;;;;;;16.35;10.82;;;;;;;15.28;73.06;101504.00;144994;571;5002;-75
2021/10/17 04:39:05;;;;;;;8.80;4.90;;;;;;;15.25;72.75;101507.41;144994;578;5002;-76
2021/10/17 04:41:33;;;;;;;5.72;4.62;;;;;;;15.24;72.91;101501.31;144994;606;5002;-77
2021/10/17 04:44:00;;;;;;;12.43;7.60;;;;;;;15.23;73.20;101504.78;144994;571;5002;-75
2021/10/17 04:46:27;;;;;;;6.15;4.70;;;;;;;15.21;72.94;101508.22;144994;625;5002;-79
2021/10/17 04:48:53;;;;;;;14.55;9.25;;;;;;;15.18;73.12;101509.00;144994;622;5002;-78
2021/10/17 04:51:20;;;;;;;5.97;4.15;;;;;;;15.17;73.00;101508.97;144994;638;5002;-77
2021/10/17 04:53:46;;;;;;;14.52;8.82;;;;;;;15.20;73.10;101517.78;144994;594;5002;-76
2021/10/17 04:56:13;;;;;;;6.37;4.53;;;;;;;15.20;73.03;101522.13;144994;649;5002;-77
2021/10/17 04:58:39;;;;;;;8.80;5.40;;;;;;;15.21;72.90;101519.56;144994;634;5002;-76
2021/10/17 05:01:08;;;;;;;7.07;5.43;;;;;;;15.18;72.93;101529.06;144994;566;5003;-77
2021/10/17 05:03:35;;;;;;;6.50;5.00;;;;;;;15.14;72.69;101532.44;144994;604;5002;-77
2021/10/17 05:06:01;;;;;;;16.62;10.45;;;;;;;15.19;72.98;101522.97;144994;551;5002;-77
2021/10/17 05:08:28;;;;;;;13.93;8.98;;;;;;;15.24;72.98;101535.31;144994;587;5002;-77
2021/10/17 05:10:54;;;;;;;5.00;4.50;;;;;;;15.23;72.82;101544.00;144994;622;5002;-76
2021/10/17 05:13:20;;;;;;;4.70;4.20;;;;;;;15.14;72.18;101541.16;144994;677;5002;-77
2021/10/17 05:15:47;;;;;;;7.03;4.57;;;;;;;15.12;72.62;101544.59;144994;569;5002;-77
2021/10/17 05:18:14;;;;;;;7.03;5.12;;;;;;;15.08;72.89;101555.81;144994;570;5002;-76
2021/10/17 05:20:40;;;;;;;6.00;4.78;;;;;;;15.06;73.05;101545.31;144994;591;5002;-75
2021/10/17 05:23:07;;;;;;;5.72;5.12;;;;;;;15.04;72.46;101550.50;144994;627;5002;-76
2021/10/17 05:25:36;;;;;;;5.10;4.20;;;;;;;15.02;72.76;101549.59;144994;672;5002;-77
2021/10/17 05:28:02;;;;;;;11.65;7.22;;;;;;;15.09;73.30;101555.00;144994;570;5002;-76
2021/10/17 05:30:32;;;;;;;12.73;8.50;;;;;;;15.15;73.28;101568.22;144994;622;5002;-76
2021/10/17 05:32:58;;;;;;;8.70;6.18;;;;;;;15.24;72.88;101566.72;144994;566;5002;-77
2021/10/17 05:35:25;;;;;;;7.95;4.82;;;;;;;15.25;72.62;101562.34;144994;580;4566;-77
2021/10/17 05:37:52;;;;;;;9.70;7.57;;;;;;;15.34;72.81;101552.09;144994;578;4567;-77
2021/10/17 05:40:18;;;;;;;10.70;7.05;;;;;;;15.42;73.04;101558.41;144994;638;4572;-75
2021/10/17 05:42:45;;;;;;;7.07;4.28;;;;;;;15.50;72.62;101565.56;144993;678;6002;-75
2021/10/17 05:45:12;;;;;;;8.07;5.85;;;;;;;15.50;72.97;101563.81;144992;576;6003;-77
2021/10/17 05:47:38;;;;;;;8.13;4.80;;;;;;;15.50;72.98;101558.59;144992;614;6002;-77
2021/10/17 05:50:06;;;;;;;9.60;5.43;;;;;;;15.45;72.97;101568.06;144992;590;6002;-75
2021/10/17 05:52:32;;;;;;;5.68;4.53;;;;;;;15.47;72.65;101568.09;144992;570;6002;-76
2021/10/17 05:54:59;;;;;;;6.12;4.05;;;;;;;15.46;72.69;101566.31;144992;584;6002;-76
2021/10/17 05:57:25;;;;;;;7.47;4.43;;;;;;;15.42;72.71;101568.87;144992;566;6002;-77
2021/10/17 05:59:52;;;;;;;5.68;4.07;;;;;;;15.39;71.95;101571.41;144992;613;6002;-78
2021/10/17 06:02:19;;;;;;;8.57;3.70;;;;;;;15.30;71.68;101584.25;144992;648;6002;-77
2021/10/17 06:04:45;;;;;;;4.78;3.30;;;;;;;15.18;71.47;101584.88;144992;577;6002;-77
2021/10/17 06:07:12;;;;;;;6.55;3.60;;;;;;;15.17;72.44;101583.09;144992;573;6002;-77
2021/10/17 06:09:40;;;;;;;6.05;3.50;;;;;;;15.15;71.58;101581.28;144992;570;6002;-77
2021/10/17 06:12:09;;;;;;;5.55;3.53;;;;;;;15.17;71.62;101587.44;144992;635;6002;-76
2021/10/17 06:14:35;;;;;;;5.00;3.60;;;;;;;15.21;72.36;101594.53;144992;655;6002;-77
2021/10/17 06:17:02;;;;;;;4.72;4.00;;;;;;;15.22;72.42;101604.13;144992;572;6002;-77
2021/10/17 06:19:29;;;;;;;7.55;5.10;;;;;;;15.26;72.22;101605.09;144992;594;6002;-76
2021/10/17 06:21:55;;;;;;;6.82;5.10;;;;;;;15.32;72.54;101615.69;144992;582;6002;-77
2021/10/17 06:24:22;;;;;;;7.45;4.72;;;;;;;15.35;72.55;101618.38;144991;587;6002;-77
2021/10/17 06:26:48;;;;;;;8.00;5.65;;;;;;;15.38;72.56;101627.22;144992;569;6002;-78
2021/10/17 06:29:15;;;;;;;6.20;4.50;;;;;;;15.38;72.14;101628.94;144992;567;6002;-77
2021/10/17 06:31:41;;;;;;;8.43;5.60;;;;;;;15.40;72.08;101629.87;144992;569;6002;-77
2021/10/17 06:34:10;;;;;;;8.43;4.40;;;;;;;15.39;72.04;101636.81;144992;618;6002;-77
2021/10/17 06:36:37;;;;;;;6.12;4.45;;;;;;;15.39;72.20;101643.78;144992;607;6002;-77
2021/10/17 06:39:03;;;;;;;6.47;3.85;;;;;;;15.44;71.78;101644.78;144992;623;6002;-77
2021/10/17 06:41:30;;;;;;;7.47;5.37;;;;;;;15.54;72.42;101645.88;144992;572;6002;-77
2021/10/17 06:43:56;;;;;;;7.07;4.97;;;;;;;15.57;72.02;101645.97;144992;603;6002;-78
2021/10/17 06:46:23;;;;;;;5.80;4.35;;;;;;;15.59;71.91;101655.62;144992;580;6002;-75
2021/10/17 06:48:49;;;;;;;11.52;7.25;;;;;;;15.61;72.47;101650.44;144991;627;6002;-77
2021/10/17 06:51:16;;;;;;;14.38;8.68;;;;;;;15.70;71.99;101654.97;144992;592;6002;-76
2021/10/17 06:53:42;;;;;;;9.85;6.00;;;;;;;15.76;72.05;101656.06;144992;594;6002;-76
2021/10/17 06:56:09;;;;;;;8.23;6.00;;;;;;;15.83;71.70;101649.25;144992;704;6002;-76
2021/10/17 06:58:35;;;;;;;10.38;5.45;;;;;;;15.88;71.21;101654.59;144992;581;6002;-77
2021/10/17 07:01:01;;;;;;;11.38;6.15;;;;;;;15.90;71.85;101655.50;144992;571;6002;-76
2021/10/17 07:03:28;;;;;;;9.73;5.97;;;;;;;15.92;71.87;101657.31;144992;665;6002;-78
2021/10/17 07:05:54;;;;;;;6.97;5.00;;;;;;;15.95;71.52;101648.62;144992;590;6002;-78
2021/10/17 07:08:21;;;;;;;5.85;4.65;;;;;;;16.00;71.55;101651.34;144992;565;6002;-77
2021/10/17 07:10:47;;;;;;;9.82;7.10;;;;;;;16.09;71.43;101648.94;144992;581;6002;-78
2021/10/17 07:13:14;;;;;;;11.45;5.62;;;;;;;16.13;71.93;101649.03;144991;681;6002;-77
2021/10/17 07:15:40;;;;;;;12.77;6.45;;;;;;;16.20;71.40;101647.44;144992;657;6002;-77
2021/10/17 07:18:07;;;;;;;6.50;5.20;;;;;;;16.26;71.37;101652.81;144992;588;6002;-78
2021/10/17 07:20:33;;;;;;;8.32;5.50;;;;;;;16.34;71.18;101658.22;144992;616;6002;-81
2021/10/17 07:23:00;;;;;;;10.48;6.30;;;;;;;16.40;71.32;101657.44;144992;600;6002;-76
2021/10/17 07:25:26;;;;;;;7.15;5.05;;;;;;;16.44;70.86;101661.91;144992;680;6002;-79
2021/10/17 07:27:53;;;;;;;7.55;5.40;;;;;;;16.46;71.19;101662.81;144992;670;6002;-78
2021/10/17 07:30:20;;;;;;;6.82;4.50;;;;;;;16.47;70.92;101669.81;144992;592;6002;-79
2021/10/17 07:32:49;;;;;;;10.43;6.82;;;;;;;16.50;71.04;101667.28;144992;662;6002;-80
2021/10/17 07:35:19;;;;;;;6.93;4.72;;;;;;;16.55;71.17;101665.62;144991;584;6002;-78
2021/10/17 07:37:45;;;;;;;7.07;5.47;;;;;;;16.58;71.24;101670.94;144992;625;6002;-79
2021/10/17 07:40:12;;;;;;;7.60;5.30;;;;;;;16.60;70.99;101673.56;144992;727;6002;-81
2021/10/17 07:42:39;;;;;;;6.30;3.72;;;;;;;16.61;71.09;101681.47;144992;569;6002;-79
2021/10/17 07:45:06;;;;;;;14.02;7.87;;;;;;;16.65;70.80;101678.03;144992;608;6002;-78
2021/10/17 07:47:37;;;;;;;6.37;3.75;;;;;;;16.67;69.74;101676.34;144992;589;6002;-78
2021/10/17 07:50:05;;;;;;;6.68;4.22;;;;;;;16.73;70.79;101686.06;144992;694;6002;-78
2021/10/17 07:52:33;;;;;;;5.72;3.60;;;;;;;16.77;71.15;101680.03;144992;638;6002;-80
2021/10/17 07:54:59;;;;;;;5.55;3.92;;;;;;;16.78;70.61;101684.44;144992;603;6002;-79
2021/10/17 07:57:26;;;;;;;11.02;7.12;;;;;;;16.79;70.81;101686.19;144992;652;6002;-79
2021/10/17 07:59:52;;;;;;;5.93;3.10;;;;;;;16.77;70.54;101689.66;144992;603;6002;-80
2021/10/17 08:02:18;;;;;;;4.43;3.10;;;;;;;16.67;70.26;101689.47;144992;667;6002;-77
2021/10/17 08:04:48;;;;;;;3.58;2.97;;;;;;;16.65;69.18;101688.53;144992;569;6002;-81
2021/10/17 08:07:22;;;;;;;9.80;4.00;;;;;;;16.67;70.76;101697.31;144992;707;6002;-81
2021/10/17 08:09:49;;;;;;;4.47;3.80;;;;;;;16.72;70.58;101702.66;144992;569;6002;-79
2021/10/17 08:12:15;;;;;;;8.27;4.03;;;;;;;16.76;70.71;101703.59;144992;577;6002;-80
2021/10/17 08:14:42;;;;;;;5.43;3.25;;;;;;;16.82;70.58;101701.09;144992;592;6002;-80
2021/10/17 08:17:08;;;;;;;3.62;3.33;;;;;;;16.86;69.46;101697.72;144991;576;6002;-80
2021/10/17 08:19:35;;;;;;;6.72;4.50;;;;;;;16.83;70.31;101700.22;144992;590;6002;-80
2021/10/17 08:22:01;;;;;;;5.60;3.78;;;;;;;16.89;70.62;101704.75;144992;571;6002;-83
2021/10/17 08:24:28;;;;;;;5.87;3.58;;;;;;;16.95;70.28;101695.28;144992;653;6002;-83
2021/10/17 08:26:54;;;;;;;4.30;2.95;;;;;;;17.03;70.03;101705.91;144992;633;6002;-80
2021/10/17 08:29:21;;;;;;;4.90;3.12;;;;;;;17.10;70.39;101706.91;144992;630;6002;-83
2021/10/17 08:31:47;;;;;;;3.15;2.78;;;;;;;17.13;69.89;101707.87;144992;589;6002;-81
2021/10/17 08:34:13;;;;;;;8.85;2.78;;;;;;;17.16;69.82;101707.03;144992;591;6002;-80
2021/10/17 08:36:40;;;;;;;3.97;2.92;;;;;;;17.15;68.35;101698.28;144992;724;6002;-81
2021/10/17 08:39:06;;;;;;;3.05;2.70;;;;;;;17.14;65.26;101703.50;144992;610;6002;-81
2021/10/17 08:41:33;;;;;;;2.87;2.50;;;;;;;17.15;65.95;101707.91;144992;604;6002;-80
2021/10/17 08:44:00;;;;;;;3.87;2.90;;;;;;;17.15;67.04;101711.41;144992;729;6003;-79
2021/10/17 08:46:27;;;;;;;3.35;2.40;;;;;;;17.09;63.76;101705.16;144992;564;6002;-81
2021/10/17 08:49:01;;;;;;;2.65;2.33;;;;;;;17.11;65.17;101703.44;144991;608;6002;-80
2021/10/17 08:51:27;;;;;;;5.97;2.95;;;;;;;17.15;65.37;101705.28;144992;633;6003;-79
2021/10/17 08:53:54;;;;;;;2.80;2.33;;;;;;;17.19;66.08;101710.56;144992;594;6002;-80
2021/10/17 08:56:20;;;;;;;3.12;2.30;;;;;;;17.16;66.92;101707.03;144992;571;6002;-80
2021/10/17 08:58:47;;;;;;;2.20;2.00;;;;;;;17.20;67.78;101706.22;144992;572;6002;-80
2021/10/17 09:01:19;;;;;;;3.45;2.65;;;;;;;17.28;68.22;101711.63;144992;575;6002;-80
2021/10/17 09:04:01;;;;;;;2.42;2.22;;;;;;;17.34;68.03;101709.09;144992;570;6002;-80
2021/10/17 09:06:33;;;;;;;2.85;2.10;;;;;;;17.36;64.05;101713.50;144992;691;6002;-81
2021/10/17 09:09:19;;;;;;;3.05;2.10;;;;;;;17.43;65.24;101711.00;144992;593;6002;-80
2021/10/17 09:11:57;;;;;;;5.03;3.92;;;;;;;17.55;68.05;101706.84;144992;621;6004;-81
2021/10/17 09:14:27;;;;;;;2.25;2.05;;;;;;;17.64;67.29;101710.47;144992;662;6004;-78
2021/10/17 09:16:57;;;;;;;4.25;3.12;;;;;;;17.73;68.01;101714.13;144992;567;6004;-80
2021/10/17 09:19:28;;;;;;;2.30;1.95;;;;;;;17.80;66.58;101720.38;144992;592;6004;-80
2021/10/17 09:22:13;;;;;;;2.10;1.90;;;;;;;17.82;65.68;101712.53;144992;568;6004;-80
2021/10/17 09:24:47;;;;;;;3.00;1.92;;;;;;;17.89;65.58;101710.03;144992;582;6002;-79
2021/10/17 09:27:18;;;;;;;3.90;3.30;;;;;;;17.93;63.40;101703.97;144992;569;6002;-79
2021/10/17 09:29:53;;;;;;;3.67;2.45;;;;;;;18.01;66.56;101711.97;144992;604;6002;-80
2021/10/17 09:32:27;;;;;;;2.22;2.03;;;;;;;17.98;60.73;101711.94;144992;563;6002;-79
2021/10/17 09:35:02;;;;;;;4.33;3.00;;;;;;;18.09;64.83;101710.34;144992;613;6002;-79
2021/10/17 09:37:38;;;;;;;4.47;2.90;;;;;;;18.16;62.26;101706.03;144992;589;6002;-81
2021/10/17 09:40:24;;;;;;;3.60;3.10;;;;;;;18.23;59.91;101712.25;144992;615;6002;-80
2021/10/17 09:43:06;;;;;;;5.28;2.35;;;;;;;18.26;58.98;101707.06;144992;639;6002;-80
2021/10/17 09:45:32;;;;;;;2.78;1.98;;;;;;;18.27;58.95;101703.56;144992;593;6002;-78
2021/10/17 09:47:59;;;;;;;3.37;2.03;;;;;;;18.32;63.00;101712.41;144992;601;6002;-79
2021/10/17 09:50:26;;;;;;;4.28;1.75;;;;;;;18.38;63.43;101703.72;144992;563;6002;-81
2021/10/17 09:53:08;;;;;;;2.78;1.90;;;;;;;18.41;59.42;101707.28;144992;613;6002;-80
2021/10/17 09:55:35;;;;;;;1.80;1.50;;;;;;;18.41;58.35;101711.66;144992;564;6002;-80
2021/10/17 09:58:04;;;;;;;3.40;1.58;;;;;;;18.41;61.61;101709.91;144992;599;6002;-79
2021/10/17 10:00:36;;;;;;;2.10;1.90;;;;;;;18.51;64.41;101710.91;144992;602;6002;-79
2021/10/17 10:03:07;;;;;;;2.65;1.62;;;;;;;18.54;62.38;101710.94;144992;617;6002;-80
2021/10/17 10:05:35;;;;;;;2.85;2.50;;;;;;;18.55;59.94;101709.19;144992;618;6002;-80
2021/10/17 10:08:03;;;;;;;5.72;2.53;;;;;;;18.59;62.16;101709.25;144992;615;6002;-79
2021/10/17 10:10:31;;;;;;;2.12;1.85;;;;;;;18.61;59.54;101694.37;144992;625;6002;-81
2021/10/17 10:13:01;;;;;;;2.97;2.10;;;;;;;18.71;64.11;101705.00;144992;607;6002;-81
2021/10/17 10:15:29;;;;;;;3.33;2.12;;;;;;;18.79;63.32;101692.84;144992;660;6002;-81
2021/10/17 10:17:57;;;;;;;2.65;2.33;;;;;;;18.82;61.28;101690.25;144992;565;6002;-80
2021/10/17 10:20:24;;;;;;;2.83;2.60;;;;;;;18.88;60.19;101686.81;144991;580;6002;-82
2021/10/17 10:22:52;;;;;;;4.30;2.62;;;;;;;18.97;64.28;101695.69;144992;654;6002;-81
2021/10/17 10:25:20;;;;;;;4.15;2.17;;;;;;;19.01;58.87;101676.44;144992;572;6002;-81
2021/10/17 10:27:47;;;;;;;5.55;2.40;;;;;;;19.00;61.13;101684.31;144992;665;6002;-81
2021/10/17 10:30:24;;;;;;;3.33;2.35;;;;;;;19.05;60.54;101681.75;144992;680;6002;-82
2021/10/17 10:33:14;;;;;;;3.80;2.87;;;;;;;19.15;62.98;101679.22;144992;737;6002;-82
2021/10/17 10:36:09;;;;;;;3.75;2.40;;;;;;;19.27;59.61;101670.53;144992;642;6003;-81
2021/10/17 10:39:14;;;;;;;2.62;2.33;;;;;;;19.38;63.36;101673.28;144992;626;6004;-82
2021/10/17 10:42:04;;;;;;;3.55;2.25;;;;;;;19.45;63.34;101669.81;144992;636;6002;-81
2021/10/17 10:44:40;;;;;;;4.22;2.30;;;;;;;19.52;62.78;101670.75;144992;631;6002;-83
2021/10/17 10:47:26;;;;;;;3.55;2.72;;;;;;;19.44;55.78;101660.16;144992;616;6002;-80
2021/10/17 10:49:57;;;;;;;6.72;3.37;;;;;;;19.52;62.85;101670.75;144992;573;6002;-81
2021/10/17 10:52:49;;;;;;;3.80;3.10;;;;;;;19.65;63.20;101669.97;144992;622;6002;-80
2021/10/17 10:55:43;;;;;;;6.47;4.30;;;;;;;19.73;59.84;101670.03;144992;790;6004;-80
2021/10/17 10:58:26;;;;;;;4.87;4.37;;;;;;;19.79;63.45;101659.56;144992;717;6002;-81
2021/10/17 11:00:55;;;;;;;3.33;2.97;;;;;;;19.92;63.74;101661.41;144992;576;6002;-82
2021/10/17 11:03:24;;;;;;;3.40;2.15;;;;;;;19.97;63.20;101657.94;144992;595;6002;-81
2021/10/17 11:06:28;;;;;;;4.03;2.60;;;;;;;20.01;63.41;101654.41;144992;653;6002;-81
2021/10/17 11:09:21;;;;;;;3.25;2.30;;;;;;;20.06;62.58;101652.69;144992;577;6004;-80
2021/10/17 11:11:47;;;;;;;2.28;2.08;;;;;;;20.03;60.58;101650.06;144992;576;6002;-81
2021/10/17 11:14:15;;;;;;;2.50;2.30;;;;;;;19.99;61.72;101650.91;144992;573;6002;-81
2021/10/17 11:16:41;;;;;;;2.40;2.15;;;;;;;20.00;63.59;101643.00;144992;567;6002;-81
2021/10/17 11:19:09;;;;;;;5.60;4.95;;;;;;;20.00;62.58;101643.00;144992;604;6002;-81
2021/10/17 11:21:37;;;;;;;6.25;4.72;;;;;;;20.09;60.98;101636.87;144992;588;6002;-81
2021/10/17 11:24:05;;;;;;;9.63;5.53;;;;;;;20.08;58.16;101633.37;144992;563;6002;-81
2021/10/17 11:26:32;;;;;;;3.58;3.25;;;;;;;20.17;63.19;101636.94;144991;670;6002;-80
2021/10/17 11:28:59;;;;;;;2.42;2.10;;;;;;;20.20;62.17;101634.31;144992;679;6002;-81
2021/10/17 11:31:27;;;;;;;2.97;1.92;;;;;;;20.25;62.90;101636.09;144992;587;6002;-80
2021/10/17 11:33:53;;;;;;;3.22;2.33;;;;;;;20.27;60.02;101628.19;144992;644;6002;-82
2021/10/17 11:36:20;;;;;;;5.82;3.60;;;;;;;20.31;62.93;101629.97;144992;603;6002;-80
2021/10/17 11:38:54;;;;;;;2.92;2.62;;;;;;;20.36;62.92;101632.63;144992;571;6002;-82